Bunker, Washington
Current Conditions -  °F | °C
As of 6:35 PM on Wednesday 22 Oct 2014 (Local Time) from KCLS Reporting Station
Overcast Overcast  
Wind Chill: 14°   Ceiling: 6000
Heat Index: 14°   Visibility: 10mi
Dew Point: 13°   Wind: 12mph
Humidity: 94%   Direction: 190°S
Pressure: 29.6"   Gusts: 20mph
Location:  46.6561°N, 122.993°W
Report Text: KCLS 230135Z AUTO 19010G17KT 10SM BKN060 OVC070 14/13 A2960 RMK AO2
Loading
Personal Weather Stations






























Interactive Weather Map
Tropical Storm Tracking
New forecast layout! Learn more

10-Day Weather Forecast

Advertisements
Track Severe Weather on mobile